createdAt,value
2023-07-03T00:00:00.000Z,11.55
2023-07-03T00:15:00.000Z,11.04
2023-07-03T00:30:00.000Z,11.36
2023-07-03T00:45:00.000Z,12.04
2023-07-03T01:00:00.000Z,19.56
2023-07-03T01:15:00.000Z,23.04
2023-07-03T01:30:00.000Z,24.08
2023-07-03T01:45:00.000Z,19.24
2023-07-03T02:00:00.000Z,16.64
2023-07-03T02:15:00.000Z,17.18
2023-07-03T02:30:00.000Z,17.75
2023-07-03T02:45:00.000Z,16.99
2023-07-03T03:00:00.000Z,16.78
2023-07-03T03:15:00.000Z,16.09
2023-07-03T03:30:00.000Z,15.34
2023-07-03T03:45:00.000Z,14.65
2023-07-03T04:00:00.000Z,14.42
2023-07-03T04:15:00.000Z,15.07
2023-07-03T04:30:00.000Z,14.08
2023-07-03T04:45:00.000Z,13.92
2023-07-03T05:00:00.000Z,14.93
2023-07-03T05:15:00.000Z,15.49
2023-07-03T05:30:00.000Z,15.59
2023-07-03T05:45:00.000Z,15.53
2023-07-03T06:00:00.000Z,16.66
2023-07-03T06:15:00.000Z,17.8
2023-07-03T06:30:00.000Z,21.55
2023-07-03T06:45:00.000Z,25.58
2023-07-03T07:00:00.000Z,26.35
2023-07-03T07:15:00.000Z,28.2
2023-07-03T07:30:00.000Z,24.94
2023-07-03T07:45:00.000Z,28.52
2023-07-03T08:00:00.000Z,28.54
2023-07-03T08:15:00.000Z,26.66
2023-07-03T08:30:00.000Z,26.12
2023-07-03T08:45:00.000Z,24.33
2023-07-03T09:00:00.000Z,22.02
2023-07-03T09:15:00.000Z,24.98
2023-07-03T09:30:00.000Z,24.6
2023-07-03T09:45:00.000Z,19.81
2023-07-03T10:00:00.000Z,17.21
2023-07-03T10:15:00.000Z,16.68
2023-07-03T10:30:00.000Z,17.49
2023-07-03T10:45:00.000Z,18.6
2023-07-03T11:00:00.000Z,20.89
2023-07-03T11:15:00.000Z,20.99
2023-07-03T11:30:00.000Z,19.36
2023-07-03T11:45:00.000Z,18.18
2023-07-03T12:00:00.000Z,17.22
2023-07-03T12:15:00.000Z,18.27
2023-07-03T12:30:00.000Z,19.38
2023-07-03T12:45:00.000Z,18.72
2023-07-03T13:00:00.000Z,17.29
2023-07-03T13:15:00.000Z,15.94
2023-07-03T13:30:00.000Z,17.84
2023-07-03T13:45:00.000Z,17.16
2023-07-03T14:00:00.000Z,18
2023-07-03T14:15:00.000Z,17.15
2023-07-03T14:30:00.000Z,16.68
2023-07-03T14:45:00.000Z,17.05
2023-07-03T15:00:00.000Z,17.72
2023-07-03T15:15:00.000Z,17.35
2023-07-03T15:30:00.000Z,17.09
2023-07-03T15:45:00.000Z,16.53
2023-07-03T16:00:00.000Z,17.38
2023-07-03T16:15:00.000Z,16.38
2023-07-03T16:30:00.000Z,16.89
2023-07-03T16:45:00.000Z,17.68
2023-07-03T17:00:00.000Z,18.48
2023-07-03T17:15:00.000Z,18.44
2023-07-03T17:30:00.000Z,18.71
2023-07-03T17:45:00.000Z,19.04
2023-07-03T18:00:00.000Z,19.25
2023-07-03T18:15:00.000Z,19.84
2023-07-03T18:30:00.000Z,20.46
2023-07-03T18:45:00.000Z,20.2
2023-07-03T19:00:00.000Z,20.06
2023-07-03T19:15:00.000Z,20.75
2023-07-03T19:30:00.000Z,21.45
2023-07-03T19:45:00.000Z,21.56
2023-07-03T20:00:00.000Z,21.65
2023-07-03T20:15:00.000Z,21.75
2023-07-03T20:30:00.000Z,21.82
2023-07-03T20:45:00.000Z,22.96
2023-07-03T21:00:00.000Z,22.91
2023-07-03T21:15:00.000Z,22.52
2023-07-03T21:30:00.000Z,22.71
2023-07-03T21:45:00.000Z,22.55
2023-07-03T22:00:00.000Z,23.19
2023-07-03T22:15:00.000Z,24.06
2023-07-03T22:30:00.000Z,23.36
2023-07-03T22:45:00.000Z,23.21
2023-07-03T23:00:00.000Z,22.86
2023-07-03T23:15:00.000Z,22.59
2023-07-03T23:30:00.000Z,22.61
2023-07-03T23:45:00.000Z,22.59
